Main page
METAR-TAF:

METAR-TAF

Airports :

Oseberg, Norway

Oil platform Norsk Hydro

latitude: 60-29-29N, longitude: 2-49-32E, elevation: 158 m

Current weather observation

The report was made 56 minutes ago, at 17:50 UTC
Wind 8 kt from the West
Temperature 7°C
Humidity 100%
Pressure 1026 hPa
Visibility: 0200 m
light drizzle, fog

METAR: ENOA 261750Z 26008KT 0200 -DZ FG VV001 07/07 Q1026 W///S4

Time: 20:46 (18:46 UTC)

Forecast

Forecast valid from 26 at 18 UTC to 27 at 18 UTC
Wind 12 kt from the West
Visibility: 9000 m
Few clouds at a height of 400 ft
Scattered clouds at a height of 800 ft
Broken clouds at a height of 2000 ft
Temporary
from 26 at 18 UTC to 27 at 15 UTC
Visibility: 0500 m
at a height of 200 ft
fog
Becoming
from 27 at 15 UTC to 27 at 18 UTC
Wind 12 kt from the North

TAF: ENOA 2618/2718 27012KT 9000 FEW004 SCT008 BKN020 TEMPO 2618/2715 0500 FG VV002 BECMG 2715/2718 36012KT

Weather observations and forecasts of more than 4000 airports (METAR and TAF reports).

The available stations are represented by yellow and red dots on the map.

Hover mouse over dot to see the name of the station.

Then click to see weather observations and forecasts.

To change the map : click on the green buttons with a black cross to zoom in, on the green button with a dash to zoom out, or on the green arrows for adjacent maps.


METAR-TAF: